sensor_id;sensor_type;location;lat;lon;timestamp;temperature;humidity
21023;DHT22;10669;51.076;3.714;2022-07-06T00:01:44;17.00;99.90
21023;DHT22;10669;51.076;3.714;2022-07-06T00:04:10;17.40;99.90
21023;DHT22;10669;51.076;3.714;2022-07-06T00:06:36;17.20;99.90
21023;DHT22;10669;51.076;3.714;2022-07-06T00:09:03;17.00;99.90
21023;DHT22;10669;51.076;3.714;2022-07-06T00:11:29;16.60;99.90
21023;DHT22;10669;51.076;3.714;2022-07-06T00:13:54;16.50;99.90
21023;DHT22;10669;51.076;3.714;2022-07-06T00:16:22;16.60;99.90
21023;DHT22;10669;51.076;3.714;2022-07-06T00:18:48;16.50;99.90
21023;DHT22;10669;51.076;3.714;2022-07-06T00:21:14;16.60;99.90
21023;DHT22;10669;51.076;3.714;2022-07-06T00:23:39;16.80;99.90
21023;DHT22;10669;51.076;3.714;2022-07-06T00:26:05;17.10;99.90
21023;DHT22;10669;51.076;3.714;2022-07-06T00:28:31;17.10;99.90
21023;DHT22;10669;51.076;3.714;2022-07-06T00:30:57;16.60;99.90
21023;DHT22;10669;51.076;3.714;2022-07-06T00:33:23;16.10;99.90
21023;DHT22;10669;51.076;3.714;2022-07-06T00:35:48;16.10;99.90
21023;DHT22;10669;51.076;3.714;2022-07-06T00:38:14;16.30;99.90
21023;DHT22;10669;51.076;3.714;2022-07-06T00:40:40;16.50;99.90
21023;DHT22;10669;51.076;3.714;2022-07-06T00:43:06;16.20;99.90
21023;DHT22;10669;51.076;3.714;2022-07-06T00:45:31;16.10;99.90
21023;DHT22;10669;51.076;3.714;2022-07-06T00:47:57;16.20;99.90
21023;DHT22;10669;51.076;3.714;2022-07-06T00:50:23;16.30;99.90
21023;DHT22;10669;51.076;3.714;2022-07-06T00:52:53;16.70;99.90
21023;DHT22;10669;51.076;3.714;2022-07-06T00:55:24;16.80;99.90
21023;DHT22;10669;51.076;3.714;2022-07-06T00:57:50;16.90;99.90
21023;DHT22;10669;51.076;3.714;2022-07-06T01:00:19;17.10;99.90
21023;DHT22;10669;51.076;3.714;2022-07-06T01:02:45;16.80;99.90
21023;DHT22;10669;51.076;3.714;2022-07-06T01:05:13;16.60;99.90
21023;DHT22;10669;51.076;3.714;2022-07-06T01:07:43;16.80;99.90
21023;DHT22;10669;51.076;3.714;2022-07-06T01:10:11;16.90;99.90
21023;DHT22;10669;51.076;3.714;2022-07-06T01:12:42;16.90;99.90
21023;DHT22;10669;51.076;3.714;2022-07-06T01:15:11;17.10;99.90
21023;DHT22;10669;51.076;3.714;2022-07-06T01:17:39;17.20;99.90
21023;DHT22;10669;51.076;3.714;2022-07-06T01:20:25;17.20;99.90
21023;DHT22;10669;51.076;3.714;2022-07-06T01:22:53;17.20;99.90
21023;DHT22;10669;51.076;3.714;2022-07-06T01:25:20;17.20;99.90
21023;DHT22;10669;51.076;3.714;2022-07-06T01:27:46;17.30;99.90
21023;DHT22;10669;51.076;3.714;2022-07-06T01:30:15;17.10;99.90
21023;DHT22;10669;51.076;3.714;2022-07-06T01:32:41;16.80;99.90
21023;DHT22;10669;51.076;3.714;2022-07-06T01:35:09;16.30;99.90
21023;DHT22;10669;51.076;3.714;2022-07-06T01:37:36;16.40;99.90
21023;DHT22;10669;51.076;3.714;2022-07-06T01:40:03;16.40;99.90
21023;DHT22;10669;51.076;3.714;2022-07-06T01:42:29;16.30;99.90
21023;DHT22;10669;51.076;3.714;2022-07-06T01:44:55;16.40;99.90
21023;DHT22;10669;51.076;3.714;2022-07-06T01:47:21;16.60;99.90
21023;DHT22;10669;51.076;3.714;2022-07-06T01:49:48;16.40;99.90
21023;DHT22;10669;51.076;3.714;2022-07-06T01:52:14;16.40;99.90
21023;DHT22;10669;51.076;3.714;2022-07-06T01:54:40;16.50;99.90
21023;DHT22;10669;51.076;3.714;2022-07-06T01:57:05;16.70;99.90
21023;DHT22;10669;51.076;3.714;2022-07-06T01:59:31;16.60;99.90
21023;DHT22;10669;51.076;3.714;2022-07-06T02:01:56;16.50;99.90
21023;DHT22;10669;51.076;3.714;2022-07-06T02:04:22;16.50;99.90
21023;DHT22;10669;51.076;3.714;2022-07-06T02:06:48;16.30;99.90
21023;DHT22;10669;51.076;3.714;2022-07-06T02:09:13;16.30;99.90
21023;DHT22;10669;51.076;3.714;2022-07-06T02:11:39;16.50;99.90
21023;DHT22;10669;51.076;3.714;2022-07-06T02:14:05;16.80;99.90
21023;DHT22;10669;51.076;3.714;2022-07-06T02:16:31;16.90;99.90
21023;DHT22;10669;51.076;3.714;2022-07-06T02:18:56;16.80;99.90
21023;DHT22;10669;51.076;3.714;2022-07-06T02:21:22;16.70;99.90
21023;DHT22;10669;51.076;3.714;2022-07-06T02:23:49;16.50;99.90
21023;DHT22;10669;51.076;3.714;2022-07-06T02:26:14;16.60;99.90
21023;DHT22;10669;51.076;3.714;2022-07-06T02:28:40;16.70;99.90
21023;DHT22;10669;51.076;3.714;2022-07-06T02:31:05;16.90;99.90
21023;DHT22;10669;51.076;3.714;2022-07-06T02:33:31;16.80;99.90
21023;DHT22;10669;51.076;3.714;2022-07-06T02:35:57;16.70;99.90
21023;DHT22;10669;51.076;3.714;2022-07-06T02:38:22;16.40;99.90
21023;DHT22;10669;51.076;3.714;2022-07-06T02:40:48;15.70;99.90
21023;DHT22;10669;51.076;3.714;2022-07-06T02:43:14;15.20;99.90
21023;DHT22;10669;51.076;3.714;2022-07-06T02:45:39;15.00;99.90
21023;DHT22;10669;51.076;3.714;2022-07-06T02:48:05;15.20;99.90
21023;DHT22;10669;51.076;3.714;2022-07-06T02:50:31;15.50;99.90
21023;DHT22;10669;51.076;3.714;2022-07-06T02:52:57;15.80;99.90
21023;DHT22;10669;51.076;3.714;2022-07-06T02:55:24;15.90;99.90
21023;DHT22;10669;51.076;3.714;2022-07-06T02:57:49;15.80;99.90
21023;DHT22;10669;51.076;3.714;2022-07-06T03:00:15;15.70;99.90
21023;DHT22;10669;51.076;3.714;2022-07-06T03:02:42;15.80;99.90
21023;DHT22;10669;51.076;3.714;2022-07-06T03:05:08;16.00;99.90
21023;DHT22;10669;51.076;3.714;2022-07-06T03:07:33;15.70;99.90
21023;DHT22;10669;51.076;3.714;2022-07-06T03:09:59;15.30;99.90
21023;DHT22;10669;51.076;3.714;2022-07-06T03:12:25;14.90;99.90
21023;DHT22;10669;51.076;3.714;2022-07-06T03:14:51;15.00;99.90
21023;DHT22;10669;51.076;3.714;2022-07-06T03:17:16;15.10;99.90
21023;DHT22;10669;51.076;3.714;2022-07-06T03:19:42;15.40;99.90
21023;DHT22;10669;51.076;3.714;2022-07-06T03:22:08;15.70;99.90
21023;DHT22;10669;51.076;3.714;2022-07-06T03:24:33;15.80;99.90
21023;DHT22;10669;51.076;3.714;2022-07-06T03:26:59;15.80;99.90
21023;DHT22;10669;51.076;3.714;2022-07-06T03:29:25;15.80;99.90
21023;DHT22;10669;51.076;3.714;2022-07-06T03:31:50;15.70;99.90
21023;DHT22;10669;51.076;3.714;2022-07-06T03:34:16;15.70;99.90
21023;DHT22;10669;51.076;3.714;2022-07-06T03:36:42;15.70;99.90
21023;DHT22;10669;51.076;3.714;2022-07-06T03:39:07;15.70;99.90
21023;DHT22;10669;51.076;3.714;2022-07-06T03:41:33;15.70;99.90
21023;DHT22;10669;51.076;3.714;2022-07-06T03:43:59;15.70;99.90
21023;DHT22;10669;51.076;3.714;2022-07-06T03:46:25;15.70;99.90
21023;DHT22;10669;51.076;3.714;2022-07-06T03:48:51;15.40;99.90
21023;DHT22;10669;51.076;3.714;2022-07-06T03:51:16;15.30;99.90
21023;DHT22;10669;51.076;3.714;2022-07-06T03:53:43;15.10;99.90
21023;DHT22;10669;51.076;3.714;2022-07-06T03:56:09;15.00;99.90
21023;DHT22;10669;51.076;3.714;2022-07-06T03:58:54;15.20;99.90
21023;DHT22;10669;51.076;3.714;2022-07-06T04:01:20;15.10;99.90
21023;DHT22;10669;51.076;3.714;2022-07-06T04:03:46;15.20;99.90
21023;DHT22;10669;51.076;3.714;2022-07-06T04:06:11;15.60;99.90
21023;DHT22;10669;51.076;3.714;2022-07-06T04:08:37;15.90;99.90
21023;DHT22;10669;51.076;3.714;2022-07-06T04:11:04;16.00;99.90
21023;DHT22;10669;51.076;3.714;2022-07-06T04:13:29;15.80;99.90
21023;DHT22;10669;51.076;3.714;2022-07-06T04:15:55;15.90;99.90
21023;DHT22;10669;51.076;3.714;2022-07-06T04:18:21;15.80;99.90
21023;DHT22;10669;51.076;3.714;2022-07-06T04:20:47;15.90;99.90
21023;DHT22;10669;51.076;3.714;2022-07-06T04:23:13;15.70;99.90
21023;DHT22;10669;51.076;3.714;2022-07-06T04:25:38;15.60;99.90
21023;DHT22;10669;51.076;3.714;2022-07-06T04:28:04;15.60;99.90
21023;DHT22;10669;51.076;3.714;2022-07-06T04:30:30;15.70;99.90
21023;DHT22;10669;51.076;3.714;2022-07-06T04:32:56;15.70;99.90
21023;DHT22;10669;51.076;3.714;2022-07-06T04:35:22;15.80;99.90
21023;DHT22;10669;51.076;3.714;2022-07-06T04:37:47;15.70;99.90
21023;DHT22;10669;51.076;3.714;2022-07-06T04:40:14;15.80;99.90
21023;DHT22;10669;51.076;3.714;2022-07-06T04:42:40;15.80;99.90
21023;DHT22;10669;51.076;3.714;2022-07-06T04:45:06;15.80;99.90
21023;DHT22;10669;51.076;3.714;2022-07-06T04:47:32;15.80;99.90
21023;DHT22;10669;51.076;3.714;2022-07-06T04:49:58;15.80;99.90
21023;DHT22;10669;51.076;3.714;2022-07-06T04:52:24;15.70;99.90
21023;DHT22;10669;51.076;3.714;2022-07-06T04:54:50;15.60;99.90
21023;DHT22;10669;51.076;3.714;2022-07-06T04:57:15;15.60;99.90
21023;DHT22;10669;51.076;3.714;2022-07-06T04:59:41;15.90;99.90
21023;DHT22;10669;51.076;3.714;2022-07-06T05:02:07;16.00;99.90
21023;DHT22;10669;51.076;3.714;2022-07-06T05:04:33;16.20;99.90
21023;DHT22;10669;51.076;3.714;2022-07-06T05:06:59;16.30;99.90
21023;DHT22;10669;51.076;3.714;2022-07-06T05:09:24;16.60;99.90
21023;DHT22;10669;51.076;3.714;2022-07-06T05:11:50;16.60;99.90
21023;DHT22;10669;51.076;3.714;2022-07-06T05:14:16;16.60;99.90
21023;DHT22;10669;51.076;3.714;2022-07-06T05:16:42;16.60;99.90
21023;DHT22;10669;51.076;3.714;2022-07-06T05:19:07;16.60;99.90
21023;DHT22;10669;51.076;3.714;2022-07-06T05:21:33;16.60;99.90
21023;DHT22;10669;51.076;3.714;2022-07-06T05:23:59;16.80;99.90
21023;DHT22;10669;51.076;3.714;2022-07-06T05:26:25;16.60;99.90
21023;DHT22;10669;51.076;3.714;2022-07-06T05:28:50;16.70;99.90
21023;DHT22;10669;51.076;3.714;2022-07-06T05:31:16;16.60;99.90
21023;DHT22;10669;51.076;3.714;2022-07-06T05:33:42;17.00;99.90
21023;DHT22;10669;51.076;3.714;2022-07-06T05:36:08;17.10;99.90
21023;DHT22;10669;51.076;3.714;2022-07-06T05:38:33;17.30;99.90
21023;DHT22;10669;51.076;3.714;2022-07-06T05:40:59;17.50;99.90
21023;DHT22;10669;51.076;3.714;2022-07-06T05:43:25;17.50;99.90
21023;DHT22;10669;51.076;3.714;2022-07-06T05:45:52;17.60;99.90
21023;DHT22;10669;51.076;3.714;2022-07-06T05:48:17;17.70;99.90
21023;DHT22;10669;51.076;3.714;2022-07-06T05:51:01;17.80;99.90
21023;DHT22;10669;51.076;3.714;2022-07-06T05:53:27;17.80;99.90
21023;DHT22;10669;51.076;3.714;2022-07-06T05:55:53;17.80;99.90
21023;DHT22;10669;51.076;3.714;2022-07-06T05:58:19;17.80;99.90
21023;DHT22;10669;51.076;3.714;2022-07-06T06:00:44;17.90;99.90
21023;DHT22;10669;51.076;3.714;2022-07-06T06:03:10;18.10;99.90
21023;DHT22;10669;51.076;3.714;2022-07-06T06:05:36;18.00;99.90
21023;DHT22;10669;51.076;3.714;2022-07-06T06:08:01;17.80;99.90
21023;DHT22;10669;51.076;3.714;2022-07-06T06:10:28;17.90;99.90
21023;DHT22;10669;51.076;3.714;2022-07-06T06:12:54;18.00;99.90
21023;DHT22;10669;51.076;3.714;2022-07-06T06:15:20;18.00;99.90
21023;DHT22;10669;51.076;3.714;2022-07-06T06:17:46;18.00;99.90
21023;DHT22;10669;51.076;3.714;2022-07-06T06:20:13;18.00;99.90
21023;DHT22;10669;51.076;3.714;2022-07-06T06:25:15;18.00;99.90
21023;DHT22;10669;51.076;3.714;2022-07-06T06:27:44;18.10;99.90
21023;DHT22;10669;51.076;3.714;2022-07-06T06:30:10;17.80;99.90
21023;DHT22;10669;51.076;3.714;2022-07-06T06:32:36;17.80;99.90
21023;DHT22;10669;51.076;3.714;2022-07-06T06:35:04;17.70;99.90
21023;DHT22;10669;51.076;3.714;2022-07-06T06:37:30;17.70;99.90
21023;DHT22;10669;51.076;3.714;2022-07-06T06:39:55;17.90;99.90
21023;DHT22;10669;51.076;3.714;2022-07-06T06:42:21;18.10;99.90
21023;DHT22;10669;51.076;3.714;2022-07-06T06:44:47;18.30;99.90
21023;DHT22;10669;51.076;3.714;2022-07-06T06:47:12;18.40;99.90
21023;DHT22;10669;51.076;3.714;2022-07-06T06:49:38;18.50;99.90
21023;DHT22;10669;51.076;3.714;2022-07-06T06:52:03;18.50;99.90
21023;DHT22;10669;51.076;3.714;2022-07-06T06:54:29;18.30;99.90
21023;DHT22;10669;51.076;3.714;2022-07-06T06:56:55;18.20;99.90
21023;DHT22;10669;51.076;3.714;2022-07-06T06:59:21;18.20;99.90
21023;DHT22;10669;51.076;3.714;2022-07-06T07:01:47;18.30;99.90
21023;DHT22;10669;51.076;3.714;2022-07-06T07:04:13;18.50;99.90
21023;DHT22;10669;51.076;3.714;2022-07-06T07:06:39;18.70;99.90
21023;DHT22;10669;51.076;3.714;2022-07-06T07:09:04;18.70;99.90
21023;DHT22;10669;51.076;3.714;2022-07-06T07:11:30;18.70;99.90
21023;DHT22;10669;51.076;3.714;2022-07-06T07:13:56;18.50;99.90
21023;DHT22;10669;51.076;3.714;2022-07-06T07:16:22;18.50;99.90
21023;DHT22;10669;51.076;3.714;2022-07-06T07:18:50;18.50;99.90
21023;DHT22;10669;51.076;3.714;2022-07-06T07:21:15;18.30;99.90
21023;DHT22;10669;51.076;3.714;2022-07-06T07:23:41;18.30;99.90
21023;DHT22;10669;51.076;3.714;2022-07-06T07:26:07;18.20;99.90
21023;DHT22;10669;51.076;3.714;2022-07-06T07:28:33;18.20;99.90
21023;DHT22;10669;51.076;3.714;2022-07-06T07:30:59;18.10;99.90
21023;DHT22;10669;51.076;3.714;2022-07-06T07:33:24;17.90;99.90
21023;DHT22;10669;51.076;3.714;2022-07-06T07:35:50;18.20;99.90
21023;DHT22;10669;51.076;3.714;2022-07-06T07:38:16;18.60;99.90
21023;DHT22;10669;51.076;3.714;2022-07-06T07:40:41;18.70;99.90
21023;DHT22;10669;51.076;3.714;2022-07-06T07:43:08;19.00;99.90
21023;DHT22;10669;51.076;3.714;2022-07-06T07:45:34;19.10;99.90
21023;DHT22;10669;51.076;3.714;2022-07-06T07:47:59;18.60;99.90
21023;DHT22;10669;51.076;3.714;2022-07-06T07:50:25;18.50;99.90
21023;DHT22;10669;51.076;3.714;2022-07-06T07:52:53;18.30;99.90
21023;DHT22;10669;51.076;3.714;2022-07-06T07:55:18;18.50;99.90
21023;DHT22;10669;51.076;3.714;2022-07-06T07:57:44;18.30;99.90
21023;DHT22;10669;51.076;3.714;2022-07-06T08:00:10;18.40;99.90
21023;DHT22;10669;51.076;3.714;2022-07-06T08:02:36;18.50;99.90
21023;DHT22;10669;51.076;3.714;2022-07-06T08:05:03;18.70;99.90
21023;DHT22;10669;51.076;3.714;2022-07-06T08:07:28;19.20;99.90
21023;DHT22;10669;51.076;3.714;2022-07-06T08:09:54;19.20;99.90
21023;DHT22;10669;51.076;3.714;2022-07-06T08:12:21;19.10;99.90
21023;DHT22;10669;51.076;3.714;2022-07-06T08:14:46;19.10;99.90
21023;DHT22;10669;51.076;3.714;2022-07-06T08:17:12;19.10;99.90
21023;DHT22;10669;51.076;3.714;2022-07-06T08:19:38;19.30;99.90
21023;DHT22;10669;51.076;3.714;2022-07-06T08:22:03;19.80;99.90
21023;DHT22;10669;51.076;3.714;2022-07-06T08:24:35;20.00;99.90
21023;DHT22;10669;51.076;3.714;2022-07-06T08:27:01;20.40;99.90
21023;DHT22;10669;51.076;3.714;2022-07-06T08:29:31;20.70;99.90
21023;DHT22;10669;51.076;3.714;2022-07-06T08:31:56;20.80;99.90
21023;DHT22;10669;51.076;3.714;2022-07-06T08:34:23;21.00;99.90
21023;DHT22;10669;51.076;3.714;2022-07-06T08:36:48;20.90;99.90
21023;DHT22;10669;51.076;3.714;2022-07-06T08:39:14;21.20;99.90
21023;DHT22;10669;51.076;3.714;2022-07-06T08:41:41;21.40;99.90
21023;DHT22;10669;51.076;3.714;2022-07-06T08:44:08;21.70;99.90
21023;DHT22;10669;51.076;3.714;2022-07-06T08:46:37;21.80;99.90
21023;DHT22;10669;51.076;3.714;2022-07-06T08:49:04;21.80;99.90
21023;DHT22;10669;51.076;3.714;2022-07-06T08:51:31;21.60;99.90
21023;DHT22;10669;51.076;3.714;2022-07-06T08:53:57;21.40;99.90
21023;DHT22;10669;51.076;3.714;2022-07-06T08:56:24;21.10;99.90
21023;DHT22;10669;51.076;3.714;2022-07-06T08:58:50;21.20;99.90
21023;DHT22;10669;51.076;3.714;2022-07-06T09:01:16;21.60;99.90
21023;DHT22;10669;51.076;3.714;2022-07-06T09:03:45;21.60;99.90
21023;DHT22;10669;51.076;3.714;2022-07-06T09:06:13;21.50;99.90
21023;DHT22;10669;51.076;3.714;2022-07-06T09:08:43;21.20;99.90
21023;DHT22;10669;51.076;3.714;2022-07-06T09:11:09;21.20;99.90
21023;DHT22;10669;51.076;3.714;2022-07-06T09:13:35;21.60;99.90
21023;DHT22;10669;51.076;3.714;2022-07-06T09:16:11;22.20;99.90
21023;DHT22;10669;51.076;3.714;2022-07-06T09:18:39;22.20;99.90
21023;DHT22;10669;51.076;3.714;2022-07-06T09:21:07;22.30;99.90
21023;DHT22;10669;51.076;3.714;2022-07-06T09:23:33;22.30;99.90
21023;DHT22;10669;51.076;3.714;2022-07-06T09:26:10;22.30;99.90
21023;DHT22;10669;51.076;3.714;2022-07-06T09:28:43;22.20;99.90
21023;DHT22;10669;51.076;3.714;2022-07-06T09:31:10;22.30;99.90
21023;DHT22;10669;51.076;3.714;2022-07-06T09:33:36;22.40;99.90
21023;DHT22;10669;51.076;3.714;2022-07-06T09:36:02;22.50;99.90
21023;DHT22;10669;51.076;3.714;2022-07-06T09:38:28;22.30;99.90
21023;DHT22;10669;51.076;3.714;2022-07-06T09:40:54;22.40;99.90
21023;DHT22;10669;51.076;3.714;2022-07-06T09:43:22;22.20;99.90
21023;DHT22;10669;51.076;3.714;2022-07-06T09:45:57;22.40;99.90
21023;DHT22;10669;51.076;3.714;2022-07-06T09:48:27;21.80;99.90
21023;DHT22;10669;51.076;3.714;2022-07-06T09:50:55;22.00;99.90
21023;DHT22;10669;51.076;3.714;2022-07-06T09:53:23;22.00;99.90
21023;DHT22;10669;51.076;3.714;2022-07-06T09:55:53;22.30;99.90
21023;DHT22;10669;51.076;3.714;2022-07-06T09:58:20;22.40;99.90
21023;DHT22;10669;51.076;3.714;2022-07-06T10:00:47;22.80;99.90
21023;DHT22;10669;51.076;3.714;2022-07-06T10:03:14;23.20;99.90
21023;DHT22;10669;51.076;3.714;2022-07-06T10:05:42;23.30;99.90
21023;DHT22;10669;51.076;3.714;2022-07-06T10:08:09;23.10;99.90
21023;DHT22;10669;51.076;3.714;2022-07-06T10:10:37;23.10;99.90
21023;DHT22;10669;51.076;3.714;2022-07-06T10:13:03;23.20;99.90
21023;DHT22;10669;51.076;3.714;2022-07-06T10:15:32;23.50;99.90
21023;DHT22;10669;51.076;3.714;2022-07-06T10:18:00;23.50;99.90
21023;DHT22;10669;51.076;3.714;2022-07-06T10:20:32;23.90;99.90
21023;DHT22;10669;51.076;3.714;2022-07-06T10:23:00;23.50;99.90
21023;DHT22;10669;51.076;3.714;2022-07-06T10:25:26;23.20;99.90
21023;DHT22;10669;51.076;3.714;2022-07-06T10:27:53;22.80;99.90
21023;DHT22;10669;51.076;3.714;2022-07-06T10:30:19;22.90;99.90
21023;DHT22;10669;51.076;3.714;2022-07-06T10:32:47;22.80;99.90
21023;DHT22;10669;51.076;3.714;2022-07-06T10:35:14;23.00;99.90
21023;DHT22;10669;51.076;3.714;2022-07-06T10:37:40;23.00;99.90
21023;DHT22;10669;51.076;3.714;2022-07-06T10:40:06;23.00;99.90
21023;DHT22;10669;51.076;3.714;2022-07-06T10:43:02;23.40;99.90
21023;DHT22;10669;51.076;3.714;2022-07-06T10:50:55;23.20;99.90
21023;DHT22;10669;51.076;3.714;2022-07-06T10:53:25;23.30;99.90
21023;DHT22;10669;51.076;3.714;2022-07-06T10:55:53;23.20;99.90
21023;DHT22;10669;51.076;3.714;2022-07-06T11:01:09;23.20;99.90
21023;DHT22;10669;51.076;3.714;2022-07-06T11:08:59;22.20;99.90
21023;DHT22;10669;51.076;3.714;2022-07-06T11:11:38;22.70;99.90
21023;DHT22;10669;51.076;3.714;2022-07-06T11:14:11;23.00;99.90
21023;DHT22;10669;51.076;3.714;2022-07-06T11:16:59;23.20;99.90
21023;DHT22;10669;51.076;3.714;2022-07-06T11:19:29;23.20;99.90
21023;DHT22;10669;51.076;3.714;2022-07-06T11:22:10;22.90;99.90
21023;DHT22;10669;51.076;3.714;2022-07-06T11:24:38;22.80;99.90
21023;DHT22;10669;51.076;3.714;2022-07-06T11:27:05;22.60;99.90
21023;DHT22;10669;51.076;3.714;2022-07-06T11:29:33;22.50;99.90
21023;DHT22;10669;51.076;3.714;2022-07-06T11:32:02;22.50;99.90
21023;DHT22;10669;51.076;3.714;2022-07-06T11:34:34;22.30;99.90
21023;DHT22;10669;51.076;3.714;2022-07-06T11:37:11;22.20;99.90
21023;DHT22;10669;51.076;3.714;2022-07-06T11:39:39;22.00;99.90
21023;DHT22;10669;51.076;3.714;2022-07-06T11:42:11;22.20;99.90
21023;DHT22;10669;51.076;3.714;2022-07-06T11:44:38;22.30;99.90
21023;DHT22;10669;51.076;3.714;2022-07-06T11:47:05;22.50;99.90
21023;DHT22;10669;51.076;3.714;2022-07-06T11:49:32;22.80;99.90
21023;DHT22;10669;51.076;3.714;2022-07-06T11:52:00;23.10;99.80
21023;DHT22;10669;51.076;3.714;2022-07-06T11:54:26;23.10;99.90
21023;DHT22;10669;51.076;3.714;2022-07-06T11:56:58;23.50;99.90
21023;DHT22;10669;51.076;3.714;2022-07-06T11:59:32;23.70;99.90
21023;DHT22;10669;51.076;3.714;2022-07-06T12:04:38;23.40;99.90
21023;DHT22;10669;51.076;3.714;2022-07-06T12:07:07;23.50;99.90
21023;DHT22;10669;51.076;3.714;2022-07-06T12:09:35;23.60;99.90
21023;DHT22;10669;51.076;3.714;2022-07-06T12:12:02;23.40;99.90
21023;DHT22;10669;51.076;3.714;2022-07-06T12:14:28;23.40;99.90
21023;DHT22;10669;51.076;3.714;2022-07-06T12:16:55;23.00;99.60
21023;DHT22;10669;51.076;3.714;2022-07-06T12:19:23;22.60;99.90
21023;DHT22;10669;51.076;3.714;2022-07-06T12:21:50;22.60;99.90
21023;DHT22;10669;51.076;3.714;2022-07-06T12:24:27;23.00;99.90
21023;DHT22;10669;51.076;3.714;2022-07-06T12:26:54;23.20;99.90
21023;DHT22;10669;51.076;3.714;2022-07-06T12:29:21;23.40;99.90
21023;DHT22;10669;51.076;3.714;2022-07-06T12:34:17;23.30;99.90
21023;DHT22;10669;51.076;3.714;2022-07-06T12:39:12;23.40;99.90
21023;DHT22;10669;51.076;3.714;2022-07-06T12:41:47;23.60;99.90
21023;DHT22;10669;51.076;3.714;2022-07-06T12:44:15;24.00;99.30
21023;DHT22;10669;51.076;3.714;2022-07-06T12:46:42;24.30;99.40
21023;DHT22;10669;51.076;3.714;2022-07-06T12:49:20;24.60;99.40
21023;DHT22;10669;51.076;3.714;2022-07-06T12:54:22;24.90;98.40
21023;DHT22;10669;51.076;3.714;2022-07-06T12:57:17;24.50;99.00
21023;DHT22;10669;51.076;3.714;2022-07-06T12:59:55;24.20;99.60
21023;DHT22;10669;51.076;3.714;2022-07-06T13:02:31;24.30;99.40
21023;DHT22;10669;51.076;3.714;2022-07-06T13:05:03;24.40;99.50
21023;DHT22;10669;51.076;3.714;2022-07-06T13:07:30;24.70;99.20
21023;DHT22;10669;51.076;3.714;2022-07-06T13:09:58;24.70;98.60
21023;DHT22;10669;51.076;3.714;2022-07-06T13:12:24;24.90;99.30
21023;DHT22;10669;51.076;3.714;2022-07-06T13:14:50;25.30;98.50
21023;DHT22;10669;51.076;3.714;2022-07-06T13:17:17;25.50;97.80
21023;DHT22;10669;51.076;3.714;2022-07-06T13:19:42;25.80;97.80
21023;DHT22;10669;51.076;3.714;2022-07-06T13:22:08;25.40;98.00
21023;DHT22;10669;51.076;3.714;2022-07-06T13:24:34;25.30;98.50
21023;DHT22;10669;51.076;3.714;2022-07-06T13:27:00;25.50;97.80
21023;DHT22;10669;51.076;3.714;2022-07-06T13:29:26;25.80;97.40
21023;DHT22;10669;51.076;3.714;2022-07-06T13:31:51;25.80;97.60
21023;DHT22;10669;51.076;3.714;2022-07-06T13:34:17;25.90;97.00
21023;DHT22;10669;51.076;3.714;2022-07-06T13:36:43;26.20;97.00
21023;DHT22;10669;51.076;3.714;2022-07-06T13:39:09;26.30;97.30
21023;DHT22;10669;51.076;3.714;2022-07-06T13:41:35;26.40;96.50
21023;DHT22;10669;51.076;3.714;2022-07-06T13:44:01;26.20;96.40
21023;DHT22;10669;51.076;3.714;2022-07-06T13:46:28;26.20;97.00
21023;DHT22;10669;51.076;3.714;2022-07-06T13:48:56;26.30;96.80
21023;DHT22;10669;51.076;3.714;2022-07-06T13:51:25;26.40;97.00
21023;DHT22;10669;51.076;3.714;2022-07-06T13:53:53;26.20;96.20
21023;DHT22;10669;51.076;3.714;2022-07-06T13:56:19;26.20;96.30
21023;DHT22;10669;51.076;3.714;2022-07-06T13:58:45;26.00;95.90
21023;DHT22;10669;51.076;3.714;2022-07-06T14:01:11;25.80;96.80
21023;DHT22;10669;51.076;3.714;2022-07-06T14:03:37;25.80;96.70
21023;DHT22;10669;51.076;3.714;2022-07-06T14:06:04;25.50;96.50
21023;DHT22;10669;51.076;3.714;2022-07-06T14:08:34;25.30;97.10
21023;DHT22;10669;51.076;3.714;2022-07-06T14:11:00;25.00;97.20
21023;DHT22;10669;51.076;3.714;2022-07-06T14:13:26;24.90;97.60
21023;DHT22;10669;51.076;3.714;2022-07-06T14:15:52;25.10;98.10
21023;DHT22;10669;51.076;3.714;2022-07-06T14:18:18;25.60;97.60
21023;DHT22;10669;51.076;3.714;2022-07-06T14:20:45;25.50;97.00
21023;DHT22;10669;51.076;3.714;2022-07-06T14:23:11;25.70;97.00
21023;DHT22;10669;51.076;3.714;2022-07-06T14:25:38;25.40;97.30
21023;DHT22;10669;51.076;3.714;2022-07-06T14:28:04;24.90;98.30
21023;DHT22;10669;51.076;3.714;2022-07-06T14:30:32;24.70;98.90
21023;DHT22;10669;51.076;3.714;2022-07-06T14:32:59;24.70;99.40
21023;DHT22;10669;51.076;3.714;2022-07-06T14:35:24;23.80;99.90
21023;DHT22;10669;51.076;3.714;2022-07-06T14:37:51;23.70;99.90
21023;DHT22;10669;51.076;3.714;2022-07-06T14:40:17;23.40;99.90
21023;DHT22;10669;51.076;3.714;2022-07-06T14:42:43;23.20;99.90
21023;DHT22;10669;51.076;3.714;2022-07-06T14:45:09;23.30;99.90
21023;DHT22;10669;51.076;3.714;2022-07-06T14:47:34;23.10;99.90
21023;DHT22;10669;51.076;3.714;2022-07-06T14:50:02;23.00;99.90
21023;DHT22;10669;51.076;3.714;2022-07-06T14:52:28;23.20;99.90
21023;DHT22;10669;51.076;3.714;2022-07-06T14:54:55;23.30;99.90
21023;DHT22;10669;51.076;3.714;2022-07-06T14:57:23;23.50;99.90
21023;DHT22;10669;51.076;3.714;2022-07-06T14:59:49;23.80;99.90
21023;DHT22;10669;51.076;3.714;2022-07-06T15:02:14;23.90;99.90
21023;DHT22;10669;51.076;3.714;2022-07-06T15:04:40;23.70;99.90
21023;DHT22;10669;51.076;3.714;2022-07-06T15:07:06;23.80;99.90
21023;DHT22;10669;51.076;3.714;2022-07-06T15:09:31;23.80;99.90
21023;DHT22;10669;51.076;3.714;2022-07-06T15:11:58;23.50;99.90
21023;DHT22;10669;51.076;3.714;2022-07-06T15:14:23;23.70;99.90
21023;DHT22;10669;51.076;3.714;2022-07-06T15:16:49;23.80;99.90
21023;DHT22;10669;51.076;3.714;2022-07-06T15:19:17;24.00;99.90
21023;DHT22;10669;51.076;3.714;2022-07-06T15:21:43;24.50;99.80
21023;DHT22;10669;51.076;3.714;2022-07-06T15:24:08;25.30;98.60
21023;DHT22;10669;51.076;3.714;2022-07-06T15:26:34;26.30;95.80
21023;DHT22;10669;51.076;3.714;2022-07-06T15:29:00;26.20;95.30
21023;DHT22;10669;51.076;3.714;2022-07-06T15:31:25;25.70;96.00
21023;DHT22;10669;51.076;3.714;2022-07-06T15:33:51;26.40;96.10
21023;DHT22;10669;51.076;3.714;2022-07-06T15:36:17;26.60;95.40
21023;DHT22;10669;51.076;3.714;2022-07-06T15:38:42;26.10;95.20
21023;DHT22;10669;51.076;3.714;2022-07-06T15:41:08;26.50;95.40
21023;DHT22;10669;51.076;3.714;2022-07-06T15:43:34;26.70;94.80
21023;DHT22;10669;51.076;3.714;2022-07-06T15:46:02;27.20;94.30
21023;DHT22;10669;51.076;3.714;2022-07-06T15:48:29;27.70;93.40
21023;DHT22;10669;51.076;3.714;2022-07-06T15:50:55;28.40;91.80
21023;DHT22;10669;51.076;3.714;2022-07-06T15:53:21;28.60;90.80
21023;DHT22;10669;51.076;3.714;2022-07-06T15:55:47;28.10;90.60